sensor_id;sensor_type;location;lat;lon;timestamp;pressure;altitude;pressure_sealevel;temperature;humidity
18167;BME280;9208;42.688;23.404;2023-04-23T00:01:09;95462.13;;;10.79;100.00
18167;BME280;9208;42.688;23.404;2023-04-23T00:03:37;95450.13;;;10.77;100.00
18167;BME280;9208;42.688;23.404;2023-04-23T00:06:06;95455.91;;;10.79;100.00
18167;BME280;9208;42.688;23.404;2023-04-23T00:08:33;95458.78;;;10.70;100.00
18167;BME280;9208;42.688;23.404;2023-04-23T00:10:59;95451.03;;;10.68;100.00
18167;BME280;9208;42.688;23.404;2023-04-23T00:13:25;95452.41;;;10.78;100.00
18167;BME280;9208;42.688;23.404;2023-04-23T00:15:51;95457.13;;;10.78;100.00
18167;BME280;9208;42.688;23.404;2023-04-23T00:18:16;95454.94;;;10.82;100.00
18167;BME280;9208;42.688;23.404;2023-04-23T00:20:44;95458.09;;;10.75;100.00
18167;BME280;9208;42.688;23.404;2023-04-23T00:23:10;95455.38;;;10.75;100.00
18167;BME280;9208;42.688;23.404;2023-04-23T00:25:35;95449.03;;;10.69;100.00
18167;BME280;9208;42.688;23.404;2023-04-23T00:28:01;95460.69;;;10.64;100.00
18167;BME280;9208;42.688;23.404;2023-04-23T00:30:27;95462.31;;;10.56;100.00
18167;BME280;9208;42.688;23.404;2023-04-23T00:32:55;95460.78;;;10.55;100.00
18167;BME280;9208;42.688;23.404;2023-04-23T00:35:20;95463.19;;;10.47;100.00
18167;BME280;9208;42.688;23.404;2023-04-23T00:37:46;95467.16;;;10.46;100.00
18167;BME280;9208;42.688;23.404;2023-04-23T00:40:12;95456.31;;;10.37;100.00
18167;BME280;9208;42.688;23.404;2023-04-23T00:42:38;95460.28;;;10.36;100.00
18167;BME280;9208;42.688;23.404;2023-04-23T00:45:05;95450.53;;;10.35;100.00
18167;BME280;9208;42.688;23.404;2023-04-23T00:47:33;95446.03;;;10.32;100.00
18167;BME280;9208;42.688;23.404;2023-04-23T00:49:59;95446.03;;;10.32;100.00
18167;BME280;9208;42.688;23.404;2023-04-23T00:52:24;95451.03;;;10.34;100.00
18167;BME280;9208;42.688;23.404;2023-04-23T00:54:50;95445.34;;;10.37;100.00
18167;BME280;9208;42.688;23.404;2023-04-23T00:57:16;95446.59;;;10.36;100.00
18167;BME280;9208;42.688;23.404;2023-04-23T00:59:42;95447.13;;;10.40;100.00
18167;BME280;9208;42.688;23.404;2023-04-23T01:02:09;95458.09;;;10.40;100.00
18167;BME280;9208;42.688;23.404;2023-04-23T01:04:39;95462.00;;;10.34;100.00
18167;BME280;9208;42.688;23.404;2023-04-23T01:07:07;95449.81;;;10.20;100.00
18167;BME280;9208;42.688;23.404;2023-04-23T01:09:33;95452.84;;;10.22;100.00
18167;BME280;9208;42.688;23.404;2023-04-23T01:11:59;95460.09;;;10.25;100.00
18167;BME280;9208;42.688;23.404;2023-04-23T01:14:26;95459.63;;;10.27;100.00
18167;BME280;9208;42.688;23.404;2023-04-23T01:16:52;95458.31;;;10.22;100.00
18167;BME280;9208;42.688;23.404;2023-04-23T01:19:17;95462.19;;;10.15;100.00
18167;BME280;9208;42.688;23.404;2023-04-23T01:21:42;95451.63;;;10.23;100.00
18167;BME280;9208;42.688;23.404;2023-04-23T01:24:09;95449.47;;;10.13;100.00
18167;BME280;9208;42.688;23.404;2023-04-23T01:26:34;95451.13;;;9.95;100.00
18167;BME280;9208;42.688;23.404;2023-04-23T01:29:00;95448.88;;;9.94;100.00
18167;BME280;9208;42.688;23.404;2023-04-23T01:31:29;95445.50;;;9.84;100.00
18167;BME280;9208;42.688;23.404;2023-04-23T01:33:55;95450.88;;;9.93;100.00
18167;BME280;9208;42.688;23.404;2023-04-23T01:36:22;95450.97;;;9.84;100.00
18167;BME280;9208;42.688;23.404;2023-04-23T01:38:48;95453.41;;;9.82;100.00
18167;BME280;9208;42.688;23.404;2023-04-23T01:41:14;95459.81;;;9.79;100.00
18167;BME280;9208;42.688;23.404;2023-04-23T01:43:43;95460.78;;;9.76;100.00
18167;BME280;9208;42.688;23.404;2023-04-23T01:46:09;95461.16;;;9.69;100.00
18167;BME280;9208;42.688;23.404;2023-04-23T01:48:35;95473.91;;;9.72;100.00
18167;BME280;9208;42.688;23.404;2023-04-23T01:51:01;95459.84;;;9.65;100.00
18167;BME280;9208;42.688;23.404;2023-04-23T01:53:27;95463.16;;;9.69;100.00
18167;BME280;9208;42.688;23.404;2023-04-23T01:55:56;95461.81;;;9.64;100.00
18167;BME280;9208;42.688;23.404;2023-04-23T01:58:22;95463.63;;;9.67;100.00
18167;BME280;9208;42.688;23.404;2023-04-23T02:00:48;95458.13;;;9.67;100.00
18167;BME280;9208;42.688;23.404;2023-04-23T02:03:14;95467.59;;;9.66;100.00
18167;BME280;9208;42.688;23.404;2023-04-23T02:05:41;95465.13;;;9.68;100.00
18167;BME280;9208;42.688;23.404;2023-04-23T02:08:07;95463.03;;;9.63;100.00
18167;BME280;9208;42.688;23.404;2023-04-23T02:10:32;95472.94;;;9.61;100.00
18167;BME280;9208;42.688;23.404;2023-04-23T02:12:58;95469.09;;;9.67;100.00
18167;BME280;9208;42.688;23.404;2023-04-23T02:15:24;95466.44;;;9.58;100.00
18167;BME280;9208;42.688;23.404;2023-04-23T02:17:49;95466.13;;;9.56;100.00
18167;BME280;9208;42.688;23.404;2023-04-23T02:20:16;95466.63;;;9.55;100.00
18167;BME280;9208;42.688;23.404;2023-04-23T02:22:43;95474.75;;;9.64;100.00
18167;BME280;9208;42.688;23.404;2023-04-23T02:25:08;95469.66;;;9.71;100.00
18167;BME280;9208;42.688;23.404;2023-04-23T02:27:35;95473.31;;;9.68;100.00
18167;BME280;9208;42.688;23.404;2023-04-23T02:30:00;95480.03;;;9.67;100.00
18167;BME280;9208;42.688;23.404;2023-04-23T02:32:26;95474.19;;;9.60;100.00
18167;BME280;9208;42.688;23.404;2023-04-23T02:34:52;95481.63;;;9.59;100.00
18167;BME280;9208;42.688;23.404;2023-04-23T02:37:18;95474.66;;;9.58;100.00
18167;BME280;9208;42.688;23.404;2023-04-23T02:39:44;95480.38;;;9.60;100.00
18167;BME280;9208;42.688;23.404;2023-04-23T02:42:10;95475.56;;;9.55;100.00
18167;BME280;9208;42.688;23.404;2023-04-23T02:44:37;95477.97;;;9.62;100.00
18167;BME280;9208;42.688;23.404;2023-04-23T02:47:06;95478.88;;;9.59;100.00
18167;BME280;9208;42.688;23.404;2023-04-23T02:49:31;95475.31;;;9.53;100.00
18167;BME280;9208;42.688;23.404;2023-04-23T02:51:56;95470.25;;;9.37;100.00
18167;BME280;9208;42.688;23.404;2023-04-23T02:54:22;95472.41;;;9.33;100.00
18167;BME280;9208;42.688;23.404;2023-04-23T02:56:48;95469.41;;;9.31;100.00
18167;BME280;9208;42.688;23.404;2023-04-23T02:59:13;95476.19;;;9.36;100.00
18167;BME280;9208;42.688;23.404;2023-04-23T03:01:39;95477.72;;;9.37;100.00
18167;BME280;9208;42.688;23.404;2023-04-23T03:04:05;95471.38;;;9.31;100.00
18167;BME280;9208;42.688;23.404;2023-04-23T03:06:34;95473.94;;;9.34;100.00
18167;BME280;9208;42.688;23.404;2023-04-23T03:09:01;95483.81;;;9.32;100.00
18167;BME280;9208;42.688;23.404;2023-04-23T03:11:26;95491.28;;;9.31;100.00
18167;BME280;9208;42.688;23.404;2023-04-23T03:13:51;95481.50;;;9.39;100.00
18167;BME280;9208;42.688;23.404;2023-04-23T03:16:17;95490.84;;;9.33;100.00
18167;BME280;9208;42.688;23.404;2023-04-23T03:18:42;95487.31;;;9.32;100.00
18167;BME280;9208;42.688;23.404;2023-04-23T03:21:08;95492.16;;;9.37;100.00
18167;BME280;9208;42.688;23.404;2023-04-23T03:23:34;95487.25;;;9.41;100.00
18167;BME280;9208;42.688;23.404;2023-04-23T03:25:59;95489.41;;;9.37;100.00
18167;BME280;9208;42.688;23.404;2023-04-23T03:28:25;95491.88;;;9.35;100.00
18167;BME280;9208;42.688;23.404;2023-04-23T03:30:50;95492.81;;;9.32;100.00
18167;BME280;9208;42.688;23.404;2023-04-23T03:33:16;95491.50;;;9.28;100.00
18167;BME280;9208;42.688;23.404;2023-04-23T03:35:41;95497.69;;;9.28;100.00
18167;BME280;9208;42.688;23.404;2023-04-23T03:38:07;95498.84;;;9.36;100.00
18167;BME280;9208;42.688;23.404;2023-04-23T03:40:32;95500.25;;;9.32;100.00
18167;BME280;9208;42.688;23.404;2023-04-23T03:42:58;95505.72;;;9.32;100.00
18167;BME280;9208;42.688;23.404;2023-04-23T03:45:24;95500.81;;;9.36;100.00
18167;BME280;9208;42.688;23.404;2023-04-23T03:47:50;95503.41;;;9.39;100.00
18167;BME280;9208;42.688;23.404;2023-04-23T03:50:15;95503.41;;;9.39;100.00
18167;BME280;9208;42.688;23.404;2023-04-23T03:52:41;95506.94;;;9.31;100.00
18167;BME280;9208;42.688;23.404;2023-04-23T03:55:07;95508.44;;;9.32;100.00
18167;BME280;9208;42.688;23.404;2023-04-23T03:57:34;95508.75;;;9.34;100.00
18167;BME280;9208;42.688;23.404;2023-04-23T03:59:59;95508.44;;;9.32;100.00
18167;BME280;9208;42.688;23.404;2023-04-23T04:02:25;95511.50;;;9.34;100.00
18167;BME280;9208;42.688;23.404;2023-04-23T04:04:50;95520.16;;;9.32;100.00
18167;BME280;9208;42.688;23.404;2023-04-23T04:07:16;95522.44;;;9.34;100.00
18167;BME280;9208;42.688;23.404;2023-04-23T04:09:42;95519.75;;;9.25;100.00
18167;BME280;9208;42.688;23.404;2023-04-23T04:12:08;95513.38;;;9.28;100.00
18167;BME280;9208;42.688;23.404;2023-04-23T04:14:33;95517.69;;;9.34;100.00
18167;BME280;9208;42.688;23.404;2023-04-23T04:16:59;95525.34;;;9.30;100.00
18167;BME280;9208;42.688;23.404;2023-04-23T04:19:24;95523.53;;;9.27;100.00
18167;BME280;9208;42.688;23.404;2023-04-23T04:21:50;95526.34;;;9.18;100.00
18167;BME280;9208;42.688;23.404;2023-04-23T04:24:16;95523.31;;;9.16;100.00
18167;BME280;9208;42.688;23.404;2023-04-23T04:26:43;95519.94;;;9.21;100.00
18167;BME280;9208;42.688;23.404;2023-04-23T04:29:09;95530.13;;;9.21;100.00
18167;BME280;9208;42.688;23.404;2023-04-23T04:31:36;95527.97;;;9.25;100.00
18167;BME280;9208;42.688;23.404;2023-04-23T04:34:02;95529.88;;;9.33;100.00
18167;BME280;9208;42.688;23.404;2023-04-23T04:36:28;95523.94;;;9.35;100.00
18167;BME280;9208;42.688;23.404;2023-04-23T04:38:54;95528.09;;;9.30;100.00
18167;BME280;9208;42.688;23.404;2023-04-23T04:41:21;95523.94;;;9.35;100.00
18167;BME280;9208;42.688;23.404;2023-04-23T04:43:47;95523.00;;;9.38;100.00
18167;BME280;9208;42.688;23.404;2023-04-23T04:46:13;95538.97;;;9.39;100.00
18167;BME280;9208;42.688;23.404;2023-04-23T04:48:39;95537.38;;;9.47;100.00
18167;BME280;9208;42.688;23.404;2023-04-23T04:51:05;95539.75;;;9.54;100.00
18167;BME280;9208;42.688;23.404;2023-04-23T04:53:30;95545.22;;;9.54;100.00
18167;BME280;9208;42.688;23.404;2023-04-23T04:55:55;95546.28;;;9.57;100.00
18167;BME280;9208;42.688;23.404;2023-04-23T04:58:21;95548.16;;;9.65;100.00
18167;BME280;9208;42.688;23.404;2023-04-23T05:00:46;95550.25;;;9.70;100.00
18167;BME280;9208;42.688;23.404;2023-04-23T05:03:19;95547.03;;;9.72;100.00
18167;BME280;9208;42.688;23.404;2023-04-23T05:05:45;95546.38;;;9.77;100.00
18167;BME280;9208;42.688;23.404;2023-04-23T05:08:11;95543.47;;;9.80;100.00
18167;BME280;9208;42.688;23.404;2023-04-23T05:10:37;95553.88;;;9.91;100.00
18167;BME280;9208;42.688;23.404;2023-04-23T05:13:02;95556.72;;;9.96;100.00
18167;BME280;9208;42.688;23.404;2023-04-23T05:15:28;95547.00;;;9.95;100.00
18167;BME280;9208;42.688;23.404;2023-04-23T05:17:54;95552.75;;;9.97;100.00
18167;BME280;9208;42.688;23.404;2023-04-23T05:20:20;95545.28;;;9.98;100.00
18167;BME280;9208;42.688;23.404;2023-04-23T05:22:46;95552.00;;;9.97;100.00
18167;BME280;9208;42.688;23.404;2023-04-23T05:25:11;95543.59;;;10.00;100.00
18167;BME280;9208;42.688;23.404;2023-04-23T05:27:37;95552.69;;;10.06;100.00
18167;BME280;9208;42.688;23.404;2023-04-23T05:30:05;95556.75;;;10.11;100.00
18167;BME280;9208;42.688;23.404;2023-04-23T05:32:32;95558.16;;;10.06;100.00
18167;BME280;9208;42.688;23.404;2023-04-23T05:35:01;95558.16;;;10.06;100.00
18167;BME280;9208;42.688;23.404;2023-04-23T05:37:28;95565.25;;;10.13;100.00
18167;BME280;9208;42.688;23.404;2023-04-23T05:39:53;95558.47;;;10.08;100.00
18167;BME280;9208;42.688;23.404;2023-04-23T05:42:20;95558.94;;;10.22;100.00
18167;BME280;9208;42.688;23.404;2023-04-23T05:44:45;95557.44;;;10.21;100.00
18167;BME280;9208;42.688;23.404;2023-04-23T05:47:12;95557.44;;;10.21;100.00
18167;BME280;9208;42.688;23.404;2023-04-23T05:49:38;95561.66;;;10.07;100.00
18167;BME280;9208;42.688;23.404;2023-04-23T05:52:03;95556.66;;;10.05;100.00
18167;BME280;9208;42.688;23.404;2023-04-23T05:54:29;95556.88;;;10.17;100.00
18167;BME280;9208;42.688;23.404;2023-04-23T05:56:54;95559.81;;;10.04;100.00
18167;BME280;9208;42.688;23.404;2023-04-23T05:59:20;95553.75;;;10.09;100.00
18167;BME280;9208;42.688;23.404;2023-04-23T06:01:47;95557.25;;;10.24;100.00
18167;BME280;9208;42.688;23.404;2023-04-23T06:04:13;95556.19;;;10.22;100.00
18167;BME280;9208;42.688;23.404;2023-04-23T06:06:38;95550.31;;;10.28;100.00
18167;BME280;9208;42.688;23.404;2023-04-23T06:09:04;95551.75;;;10.39;100.00
18167;BME280;9208;42.688;23.404;2023-04-23T06:11:30;95549.75;;;10.54;100.00
18167;BME280;9208;42.688;23.404;2023-04-23T06:13:56;95554.19;;;10.66;100.00
18167;BME280;9208;42.688;23.404;2023-04-23T06:16:22;95552.38;;;10.77;100.00
18167;BME280;9208;42.688;23.404;2023-04-23T06:18:48;95549.03;;;10.88;100.00
18167;BME280;9208;42.688;23.404;2023-04-23T06:21:13;95545.09;;;10.94;100.00
18167;BME280;9208;42.688;23.404;2023-04-23T06:23:39;95544.25;;;11.03;100.00
18167;BME280;9208;42.688;23.404;2023-04-23T06:26:04;95548.94;;;11.17;100.00
18167;BME280;9208;42.688;23.404;2023-04-23T06:28:30;95547.78;;;11.23;100.00
18167;BME280;9208;42.688;23.404;2023-04-23T06:30:55;95542.38;;;11.29;100.00
18167;BME280;9208;42.688;23.404;2023-04-23T06:33:21;95547.50;;;11.41;100.00
18167;BME280;9208;42.688;23.404;2023-04-23T06:35:46;95539.94;;;11.56;100.00
18167;BME280;9208;42.688;23.404;2023-04-23T06:38:12;95553.19;;;11.58;100.00
18167;BME280;9208;42.688;23.404;2023-04-23T06:40:37;95546.34;;;11.68;100.00
18167;BME280;9208;42.688;23.404;2023-04-23T06:43:03;95542.16;;;11.72;100.00
18167;BME280;9208;42.688;23.404;2023-04-23T06:45:33;95545.31;;;11.85;100.00
18167;BME280;9208;42.688;23.404;2023-04-23T06:47:59;95544.22;;;12.03;100.00
18167;BME280;9208;42.688;23.404;2023-04-23T06:50:25;95538.72;;;12.03;100.00
18167;BME280;9208;42.688;23.404;2023-04-23T06:52:51;95540.25;;;12.04;100.00
18167;BME280;9208;42.688;23.404;2023-04-23T06:55:17;95539.88;;;12.16;100.00
18167;BME280;9208;42.688;23.404;2023-04-23T06:57:43;95539.59;;;12.14;100.00
18167;BME280;9208;42.688;23.404;2023-04-23T07:00:09;95534.53;;;12.33;100.00
18167;BME280;9208;42.688;23.404;2023-04-23T07:02:37;95521.22;;;12.26;100.00
18167;BME280;9208;42.688;23.404;2023-04-23T07:05:03;95530.63;;;12.45;100.00
18167;BME280;9208;42.688;23.404;2023-04-23T07:07:29;95534.97;;;12.57;100.00
18167;BME280;9208;42.688;23.404;2023-04-23T07:09:55;95534.59;;;12.75;100.00
18167;BME280;9208;42.688;23.404;2023-04-23T07:12:20;95533.56;;;13.03;100.00
18167;BME280;9208;42.688;23.404;2023-04-23T07:14:46;95539.97;;;13.31;100.00
18167;BME280;9208;42.688;23.404;2023-04-23T07:17:11;95532.00;;;13.39;100.00
18167;BME280;9208;42.688;23.404;2023-04-23T07:19:37;95530.53;;;13.43;100.00
18167;BME280;9208;42.688;23.404;2023-04-23T07:22:02;95531.78;;;13.48;100.00
18167;BME280;9208;42.688;23.404;2023-04-23T07:24:28;95532.09;;;13.55;100.00
18167;BME280;9208;42.688;23.404;2023-04-23T07:26:53;95531.09;;;13.58;100.00
18167;BME280;9208;42.688;23.404;2023-04-23T07:29:19;95535.38;;;13.65;100.00
18167;BME280;9208;42.688;23.404;2023-04-23T07:31:45;95534.41;;;13.73;100.00
18167;BME280;9208;42.688;23.404;2023-04-23T07:34:11;95530.69;;;13.93;100.00
18167;BME280;9208;42.688;23.404;2023-04-23T07:36:36;95531.25;;;14.08;100.00
18167;BME280;9208;42.688;23.404;2023-04-23T07:39:02;95528.50;;;14.08;100.00
18167;BME280;9208;42.688;23.404;2023-04-23T07:41:30;95536.50;;;14.00;100.00
18167;BME280;9208;42.688;23.404;2023-04-23T07:43:55;95539.25;;;14.00;100.00
18167;BME280;9208;42.688;23.404;2023-04-23T07:46:21;95539.03;;;14.09;100.00
18167;BME280;9208;42.688;23.404;2023-04-23T07:48:46;95536.56;;;14.28;100.00
18167;BME280;9208;42.688;23.404;2023-04-23T07:51:12;95534.59;;;14.34;100.00
18167;BME280;9208;42.688;23.404;2023-04-23T07:53:38;95532.81;;;14.31;100.00
18167;BME280;9208;42.688;23.404;2023-04-23T07:56:03;95535.31;;;14.34;100.00
18167;BME280;9208;42.688;23.404;2023-04-23T07:58:29;95527.06;;;14.40;100.00
18167;BME280;9208;42.688;23.404;2023-04-23T08:00:54;95534.34;;;14.54;100.00
18167;BME280;9208;42.688;23.404;2023-04-23T08:03:20;95529.31;;;14.52;100.00
18167;BME280;9208;42.688;23.404;2023-04-23T08:05:46;95528.56;;;14.57;100.00
18167;BME280;9208;42.688;23.404;2023-04-23T08:08:11;95536.34;;;14.75;100.00
18167;BME280;9208;42.688;23.404;2023-04-23T08:10:37;95532.09;;;14.85;100.00
18167;BME280;9208;42.688;23.404;2023-04-23T08:13:02;95542.59;;;15.03;99.38
18167;BME280;9208;42.688;23.404;2023-04-23T08:15:28;95539.56;;;14.96;98.74
18167;BME280;9208;42.688;23.404;2023-04-23T08:17:54;95534.31;;;14.98;99.10
18167;BME280;9208;42.688;23.404;2023-04-23T08:20:19;95529.78;;;15.06;99.39
18167;BME280;9208;42.688;23.404;2023-04-23T08:22:45;95538.31;;;15.13;98.07
18167;BME280;9208;42.688;23.404;2023-04-23T08:25:10;95533.28;;;15.17;98.03
18167;BME280;9208;42.688;23.404;2023-04-23T08:27:37;95537.78;;;15.20;97.64
18167;BME280;9208;42.688;23.404;2023-04-23T08:30:03;95527.72;;;15.23;97.81
18167;BME280;9208;42.688;23.404;2023-04-23T08:32:29;95528.00;;;15.14;96.30
18167;BME280;9208;42.688;23.404;2023-04-23T08:34:54;95528.50;;;15.18;94.90
18167;BME280;9208;42.688;23.404;2023-04-23T08:37:20;95517.72;;;15.09;95.97
18167;BME280;9208;42.688;23.404;2023-04-23T08:39:45;95517.50;;;14.96;98.72
18167;BME280;9208;42.688;23.404;2023-04-23T08:45:03;95511.41;;;15.25;98.03
18167;BME280;9208;42.688;23.404;2023-04-23T08:47:31;95516.94;;;15.36;96.27
18167;BME280;9208;42.688;23.404;2023-04-23T08:49:58;95518.69;;;15.39;94.32
18167;BME280;9208;42.688;23.404;2023-04-23T08:52:25;95514.41;;;15.38;94.29
18167;BME280;9208;42.688;23.404;2023-04-23T08:55:01;95517.94;;;15.33;93.16
18167;BME280;9208;42.688;23.404;2023-04-23T08:57:29;95517.69;;;15.42;91.84
18167;BME280;9208;42.688;23.404;2023-04-23T08:59:56;95513.63;;;15.48;91.92
18167;BME280;9208;42.688;23.404;2023-04-23T09:02:22;95519.91;;;15.49;91.82
18167;BME280;9208;42.688;23.404;2023-04-23T09:04:48;95510.31;;;15.61;91.32
18167;BME280;9208;42.688;23.404;2023-04-23T09:07:14;95512.50;;;15.73;90.46
18167;BME280;9208;42.688;23.404;2023-04-23T09:09:40;95517.94;;;15.90;89.93
18167;BME280;9208;42.688;23.404;2023-04-23T09:12:06;95521.41;;;16.01;88.46
18167;BME280;9208;42.688;23.404;2023-04-23T09:14:33;95520.38;;;16.10;87.66
18167;BME280;9208;42.688;23.404;2023-04-23T09:16:59;95521.84;;;16.16;87.45
18167;BME280;9208;42.688;23.404;2023-04-23T09:19:27;95525.13;;;16.15;86.68
18167;BME280;9208;42.688;23.404;2023-04-23T09:21:53;95520.31;;;16.15;85.63
18167;BME280;9208;42.688;23.404;2023-04-23T09:24:23;95520.53;;;16.23;85.57
18167;BME280;9208;42.688;23.404;2023-04-23T09:26:50;95516.19;;;16.33;85.13
18167;BME280;9208;42.688;23.404;2023-04-23T09:29:21;95526.00;;;16.34;83.59
18167;BME280;9208;42.688;23.404;2023-04-23T09:31:57;95515.91;;;16.36;83.63
18167;BME280;9208;42.688;23.404;2023-04-23T09:34:26;95525.47;;;16.41;82.71
18167;BME280;9208;42.688;23.404;2023-04-23T09:36:54;95526.41;;;16.49;82.08
18167;BME280;9208;42.688;23.404;2023-04-23T09:39:21;95530.69;;;16.50;80.06
18167;BME280;9208;42.688;23.404;2023-04-23T09:41:47;95540.06;;;16.41;79.71
18167;BME280;9208;42.688;23.404;2023-04-23T09:44:19;95525.38;;;16.52;79.54
18167;BME280;9208;42.688;23.404;2023-04-23T09:46:47;95515.50;;;16.62;80.60
18167;BME280;9208;42.688;23.404;2023-04-23T09:49:13;95514.66;;;16.72;79.54
18167;BME280;9208;42.688;23.404;2023-04-23T09:54:18;95560.38;;;16.84;73.73
18167;BME280;9208;42.688;23.404;2023-04-23T09:56:49;95553.53;;;16.91;74.47
18167;BME280;9208;42.688;23.404;2023-04-23T09:59:24;95526.47;;;17.02;76.23
18167;BME280;9208;42.688;23.404;2023-04-23T10:01:51;95515.56;;;17.10;76.49
18167;BME280;9208;42.688;23.404;2023-04-23T10:04:24;95509.72;;;17.13;76.41
18167;BME280;9208;42.688;23.404;2023-04-23T10:07:00;95517.47;;;17.20;75.17
18167;BME280;9208;42.688;23.404;2023-04-23T10:09:28;95519.50;;;17.20;74.93
18167;BME280;9208;42.688;23.404;2023-04-23T10:11:58;95529.75;;;17.25;73.97
18167;BME280;9208;42.688;23.404;2023-04-23T10:14:25;95513.03;;;17.36;73.83
18167;BME280;9208;42.688;23.404;2023-04-23T10:19:22;95536.72;;;17.61;71.73
18167;BME280;9208;42.688;23.404;2023-04-23T10:22:03;95544.59;;;17.75;70.13
18167;BME280;9208;42.688;23.404;2023-04-23T10:24:34;95558.63;;;17.83;68.87
18167;BME280;9208;42.688;23.404;2023-04-23T10:27:03;95542.22;;;17.85;69.61
18167;BME280;9208;42.688;23.404;2023-04-23T10:29:30;95531.41;;;17.81;69.81
18167;BME280;9208;42.688;23.404;2023-04-23T10:32:06;95580.97;;;17.72;65.54
18167;BME280;9208;42.688;23.404;2023-04-23T10:34:32;95565.94;;;17.62;66.99
18167;BME280;9208;42.688;23.404;2023-04-23T10:37:00;95549.53;;;17.64;67.70
18167;BME280;9208;42.688;23.404;2023-04-23T10:39:33;95550.66;;;17.74;66.85
18167;BME280;9208;42.688;23.404;2023-04-23T10:42:01;95591.63;;;17.86;63.70
18167;BME280;9208;42.688;23.404;2023-04-23T10:44:36;95594.28;;;17.97;62.84
18167;BME280;9208;42.688;23.404;2023-04-23T10:47:05;95631.91;;;17.93;59.87
18167;BME280;9208;42.688;23.404;2023-04-23T10:49:33;95624.94;;;18.05;60.29
18167;BME280;9208;42.688;23.404;2023-04-23T10:52:10;95600.72;;;18.05;61.46
18167;BME280;9208;42.688;23.404;2023-04-23T10:54:39;95602.63;;;18.16;61.06
18167;BME280;9208;42.688;23.404;2023-04-23T10:57:06;95588.66;;;18.21;62.06
18167;BME280;9208;42.688;23.404;2023-04-23T10:59:33;95561.38;;;18.44;63.41
18167;BME280;9208;42.688;23.404;2023-04-23T11:02:13;95558.38;;;18.61;62.93
18167;BME280;9208;42.688;23.404;2023-04-23T11:04:44;95570.81;;;18.73;62.02
18167;BME280;9208;42.688;23.404;2023-04-23T11:07:11;95557.75;;;18.68;63.26
18167;BME280;9208;42.688;23.404;2023-04-23T11:09:41;95558.06;;;18.64;63.31
18167;BME280;9208;42.688;23.404;2023-04-23T11:14:50;95547.41;;;18.31;62.91
18167;BME280;9208;42.688;23.404;2023-04-23T11:17:17;95546.03;;;18.43;62.50
18167;BME280;9208;42.688;23.404;2023-04-23T11:22:39;95517.28;;;18.41;64.29
18167;BME280;9208;42.688;23.404;2023-04-23T11:25:31;95507.75;;;18.36;64.19
18167;BME280;9208;42.688;23.404;2023-04-23T11:27:56;95508.34;;;18.29;63.60
18167;BME280;9208;42.688;23.404;2023-04-23T11:30:30;95512.41;;;18.47;64.98
18167;BME280;9208;42.688;23.404;2023-04-23T11:32:56;95528.59;;;18.61;60.62
18167;BME280;9208;42.688;23.404;2023-04-23T11:35:25;95560.69;;;18.75;59.17
18167;BME280;9208;42.688;23.404;2023-04-23T11:37:52;95563.00;;;19.03;58.43
18167;BME280;9208;42.688;23.404;2023-04-23T11:40:18;95584.16;;;19.24;56.50
18167;BME280;9208;42.688;23.404;2023-04-23T11:42:48;95591.97;;;19.39;55.28
18167;BME280;9208;42.688;23.404;2023-04-23T11:45:25;95595.97;;;19.56;54.49
18167;BME280;9208;42.688;23.404;2023-04-23T11:47:53;95624.75;;;19.72;52.58
18167;BME280;9208;42.688;23.404;2023-04-23T11:50:29;95648.41;;;19.78;50.26
18167;BME280;9208;42.688;23.404;2023-04-23T11:53:02;95678.78;;;19.76;46.57
18167;BME280;9208;42.688;23.404;2023-04-23T11:55:28;95699.75;;;19.77;44.17
18167;BME280;9208;42.688;23.404;2023-04-23T11:57:53;95678.81;;;19.89;47.04
18167;BME280;9208;42.688;23.404;2023-04-23T12:00:23;95670.03;;;19.98;46.92
18167;BME280;9208;42.688;23.404;2023-04-23T12:02:52;95683.50;;;19.81;44.56
18167;BME280;9208;42.688;23.404;2023-04-23T12:05:22;95672.06;;;19.85;44.98
18167;BME280;9208;42.688;23.404;2023-04-23T12:07:51;95647.72;;;19.59;47.43
18167;BME280;9208;42.688;23.404;2023-04-23T12:10:21;95617.75;;;19.39;49.40
18167;BME280;9208;42.688;23.404;2023-04-23T12:12:51;95623.63;;;19.36;48.44
18167;BME280;9208;42.688;23.404;2023-04-23T12:15:16;95608.31;;;19.29;48.41
18167;BME280;9208;42.688;23.404;2023-04-23T12:17:50;95607.03;;;19.30;49.13
18167;BME280;9208;42.688;23.404;2023-04-23T12:20:17;95590.25;;;19.36;49.49
18167;BME280;9208;42.688;23.404;2023-04-23T12:22:43;95595.50;;;19.39;49.28
18167;BME280;9208;42.688;23.404;2023-04-23T12:25:09;95598.28;;;19.39;48.36
18167;BME280;9208;42.688;23.404;2023-04-23T12:27:40;95597.84;;;19.35;47.37
18167;BME280;9208;42.688;23.404;2023-04-23T12:30:08;95598.25;;;19.26;47.54
18167;BME280;9208;42.688;23.404;2023-04-23T12:32:34;95595.84;;;19.17;46.96
18167;BME280;9208;42.688;23.404;2023-04-23T12:34:59;95596.69;;;19.12;46.93
18167;BME280;9208;42.688;23.404;2023-04-23T12:37:26;95602.91;;;19.18;46.17
18167;BME280;9208;42.688;23.404;2023-04-23T12:39:53;95599.31;;;19.23;46.58
18167;BME280;9208;42.688;23.404;2023-04-23T12:42:20;95595.72;;;19.28;46.62
18167;BME280;9208;42.688;23.404;2023-04-23T12:44:46;95596.88;;;19.33;45.77
18167;BME280;9208;42.688;23.404;2023-04-23T12:47:11;95602.88;;;19.37;45.50
18167;BME280;9208;42.688;23.404;2023-04-23T12:49:39;95591.19;;;19.25;45.99
18167;BME280;9208;42.688;23.404;2023-04-23T12:52:06;95599.44;;;19.31;45.51
18167;BME280;9208;42.688;23.404;2023-04-23T12:54:34;95589.09;;;19.44;46.52
18167;BME280;9208;42.688;23.404;2023-04-23T12:57:04;95595.09;;;19.48;45.90
18167;BME280;9208;42.688;23.404;2023-04-23T12:59:31;95603.09;;;19.52;44.62
18167;BME280;9208;42.688;23.404;2023-04-23T13:01:57;95602.25;;;19.57;43.91
18167;BME280;9208;42.688;23.404;2023-04-23T13:04:26;95604.63;;;19.66;44.70
18167;BME280;9208;42.688;23.404;2023-04-23T13:06:52;95612.69;;;19.82;44.01
18167;BME280;9208;42.688;23.404;2023-04-23T13:09:18;95611.59;;;19.98;43.55